createdAt,value
2019-01-10T00:01:01.970Z,3.33
2019-01-10T00:03:30.494Z,3.53
2019-01-10T00:06:00.258Z,3.23
2019-01-10T00:08:28.814Z,3.40
2019-01-10T00:10:57.640Z,3.70
2019-01-10T00:13:26.518Z,3.60
2019-01-10T00:16:04.803Z,3.43
2019-01-10T00:18:34.182Z,2.80
2019-01-10T00:21:02.723Z,3.47
2019-01-10T00:23:31.300Z,2.93
2019-01-10T00:25:59.745Z,2.83
2019-01-10T00:28:28.159Z,3.53
2019-01-10T00:30:56.627Z,3.17
2019-01-10T00:33:25.255Z,2.90
2019-01-10T00:35:53.981Z,4.47
2019-01-10T00:38:22.495Z,3.07
2019-01-10T00:40:51.010Z,3.20
2019-01-10T00:43:19.409Z,3.20
2019-01-10T00:45:47.864Z,2.77
2019-01-10T00:48:16.284Z,3.40
2019-01-10T00:50:44.678Z,2.90
2019-01-10T00:53:13.462Z,3.07
2019-01-10T00:55:41.912Z,3.00
2019-01-10T00:58:10.815Z,3.30
2019-01-10T01:00:39.336Z,3.13
2019-01-10T01:03:07.759Z,3.23
2019-01-10T01:05:36.214Z,3.23
2019-01-10T01:08:04.996Z,3.30
2019-01-10T01:10:33.452Z,3.00
2019-01-10T01:13:01.940Z,3.40
2019-01-10T01:15:30.321Z,2.60
2019-01-10T01:17:58.672Z,3.03
2019-01-10T01:20:27.096Z,2.97
2019-01-10T01:22:55.485Z,3.40
2019-01-10T01:25:23.969Z,2.97
2019-01-10T01:27:52.409Z,3.00
2019-01-10T01:30:23.116Z,3.00
2019-01-10T01:32:51.565Z,3.10
2019-01-10T01:35:21.662Z,2.50
2019-01-10T01:37:50.289Z,3.07
2019-01-10T01:40:20.239Z,2.93
2019-01-10T01:42:48.880Z,2.57
2019-01-10T01:45:18.871Z,2.70
2019-01-10T01:47:47.738Z,3.50
2019-01-10T01:50:21.328Z,3.00
2019-01-10T01:52:49.782Z,3.40
2019-01-10T01:55:18.195Z,2.93
2019-01-10T01:57:46.724Z,3.13
2019-01-10T02:00:18.229Z,3.60
2019-01-10T02:02:46.612Z,2.73
2019-01-10T02:05:15.330Z,3.23
2019-01-10T02:07:43.851Z,3.10
2019-01-10T02:10:15.540Z,3.10
2019-01-10T02:12:44.059Z,3.10
2019-01-10T02:15:14.305Z,3.13
2019-01-10T02:17:48.831Z,2.57
2019-01-10T02:20:13.175Z,3.17
2019-01-10T02:22:41.697Z,2.83
2019-01-10T02:25:12.111Z,2.63
2019-01-10T02:27:40.634Z,2.80
2019-01-10T02:30:15.249Z,2.77
2019-01-10T02:32:43.694Z,2.57
2019-01-10T02:35:12.128Z,3.00
2019-01-10T02:37:40.532Z,2.70
2019-01-10T02:40:09.860Z,2.63
2019-01-10T02:42:38.306Z,2.90
2019-01-10T02:45:10.275Z,3.40
2019-01-10T02:47:38.615Z,3.20
2019-01-10T02:50:13.168Z,2.70
2019-01-10T02:52:41.601Z,2.80
2019-01-10T02:55:10.409Z,3.23
2019-01-10T02:57:38.826Z,2.90
2019-01-10T03:00:19.322Z,2.90
2019-01-10T03:02:48.023Z,2.70
2019-01-10T03:05:16.538Z,2.87
2019-01-10T03:07:44.949Z,2.37
2019-01-10T03:10:16.507Z,2.63
2019-01-10T03:12:44.925Z,2.90
2019-01-10T03:15:13.484Z,3.37
2019-01-10T03:17:41.976Z,2.90
2019-01-10T03:20:13.985Z,3.30
2019-01-10T03:22:42.495Z,2.83
2019-01-10T03:25:10.920Z,2.90
2019-01-10T03:27:39.360Z,3.00
2019-01-10T03:30:11.225Z,3.87
2019-01-10T03:32:39.596Z,5.10
2019-01-10T03:35:09.625Z,6.83
2019-01-10T03:37:37.968Z,4.60
2019-01-10T03:40:11.793Z,6.37
2019-01-10T03:42:40.192Z,5.80
2019-01-10T03:45:11.346Z,5.37
2019-01-10T03:47:39.725Z,5.00
2019-01-10T03:50:10.617Z,3.90
2019-01-10T03:52:39.063Z,3.60
2019-01-10T03:55:07.777Z,3.30
2019-01-10T03:57:36.214Z,2.63
2019-01-10T04:00:07.731Z,3.30
2019-01-10T04:02:36.259Z,3.33
2019-01-10T04:05:05.342Z,2.53
2019-01-10T04:07:33.789Z,2.83
2019-01-10T04:10:02.141Z,3.30
2019-01-10T04:12:30.687Z,3.20
2019-01-10T04:14:59.198Z,3.07
2019-01-10T04:17:27.577Z,3.40
2019-01-10T04:19:55.916Z,2.70
2019-01-10T04:22:24.303Z,2.90
2019-01-10T04:24:52.718Z,2.30
2019-01-10T04:27:21.180Z,2.63
2019-01-10T04:29:49.610Z,2.90
2019-01-10T04:32:17.979Z,2.90
2019-01-10T04:34:46.323Z,2.67
2019-01-10T04:37:14.712Z,2.57
2019-01-10T04:39:43.057Z,3.43
2019-01-10T04:42:11.445Z,2.97
2019-01-10T04:44:39.853Z,3.50
2019-01-10T04:47:08.209Z,3.30
2019-01-10T04:49:36.592Z,2.80
2019-01-10T04:52:05.006Z,3.53
2019-01-10T04:54:38.208Z,3.47
2019-01-10T04:57:03.530Z,3.33
2019-01-10T04:59:31.941Z,3.80
2019-01-10T05:02:00.254Z,3.60
2019-01-10T05:04:28.641Z,3.40
2019-01-10T05:06:56.990Z,3.60
2019-01-10T05:09:25.382Z,3.20
2019-01-10T05:11:53.729Z,3.23
2019-01-10T05:14:22.118Z,2.87
2019-01-10T05:16:50.468Z,3.67
2019-01-10T05:19:18.852Z,3.60
2019-01-10T05:21:47.200Z,4.20
2019-01-10T05:24:15.654Z,3.70
2019-01-10T05:26:44.064Z,3.63
2019-01-10T05:29:12.439Z,3.73
2019-01-10T05:31:40.852Z,3.87
2019-01-10T05:34:09.234Z,3.80
2019-01-10T05:36:37.631Z,3.77
2019-01-10T05:39:08.078Z,3.70
2019-01-10T05:41:36.565Z,3.67
2019-01-10T05:44:05.029Z,4.20
2019-01-10T05:46:33.446Z,4.30
2019-01-10T05:49:01.903Z,4.03
2019-01-10T05:51:30.271Z,4.40
2019-01-10T05:53:59.533Z,3.60
2019-01-10T05:56:28.061Z,4.30
2019-01-10T05:58:56.430Z,4.60
2019-01-10T06:01:24.870Z,4.27
2019-01-10T06:03:53.748Z,3.80
2019-01-10T06:06:22.317Z,4.73
2019-01-10T06:08:50.757Z,3.87
2019-01-10T06:11:19.140Z,5.10
2019-01-10T06:13:47.489Z,4.57
2019-01-10T06:16:15.949Z,4.80
2019-01-10T06:18:44.367Z,5.27
2019-01-10T06:21:12.752Z,3.97
2019-01-10T06:23:41.188Z,4.63
2019-01-10T06:26:09.647Z,3.90
2019-01-10T06:28:38.041Z,4.27
2019-01-10T06:31:06.482Z,4.40
2019-01-10T06:33:35.004Z,4.13
2019-01-10T06:36:03.453Z,4.57
2019-01-10T06:38:31.876Z,4.57
2019-01-10T06:41:00.333Z,4.13
2019-01-10T06:43:28.692Z,4.40
2019-01-10T06:45:57.074Z,5.30
2019-01-10T06:48:25.448Z,5.23
2019-01-10T06:50:53.828Z,7.27
2019-01-10T06:53:22.251Z,4.80
2019-01-10T06:55:50.692Z,5.00
2019-01-10T06:58:19.053Z,5.73
2019-01-10T07:00:47.504Z,5.37
2019-01-10T07:03:15.922Z,5.33
2019-01-10T07:05:47.791Z,4.90
2019-01-10T07:08:16.217Z,7.23
2019-01-10T07:10:44.566Z,5.77
2019-01-10T07:13:12.947Z,5.97
2019-01-10T07:15:41.462Z,6.10
2019-01-10T07:18:09.920Z,5.70
2019-01-10T07:20:38.508Z,5.10
2019-01-10T07:23:07.044Z,5.83
2019-01-10T07:25:35.465Z,5.53
2019-01-10T07:28:24.792Z,5.70
2019-01-10T07:30:54.597Z,5.37
2019-01-10T07:33:23.061Z,5.50
2019-01-10T07:35:55.713Z,6.07
2019-01-10T07:38:24.111Z,5.17
2019-01-10T07:40:52.480Z,4.97
2019-01-10T07:43:22.197Z,6.30
2019-01-10T07:45:50.625Z,5.33
2019-01-10T07:48:19.022Z,5.47
2019-01-10T07:50:47.456Z,5.73
2019-01-10T07:53:15.908Z,6.23
2019-01-10T07:55:44.335Z,6.83
2019-01-10T07:58:12.737Z,10.63
2019-01-10T08:00:41.112Z,10.40
2019-01-10T08:03:09.633Z,10.27
2019-01-10T08:05:38.073Z,9.43
2019-01-10T08:08:06.897Z,9.63
2019-01-10T08:10:35.424Z,6.93
2019-01-10T08:13:04.119Z,6.20
2019-01-10T08:15:32.534Z,6.10
2019-01-10T08:18:01.057Z,6.83
2019-01-10T08:20:29.406Z,6.30
2019-01-10T08:22:57.793Z,6.43
2019-01-10T08:25:26.400Z,7.77
2019-01-10T08:27:54.920Z,6.47
2019-01-10T08:30:23.819Z,7.43
2019-01-10T08:32:52.276Z,6.50
2019-01-10T08:35:22.623Z,6.23
2019-01-10T08:37:51.138Z,6.30
2019-01-10T08:40:19.717Z,5.97
2019-01-10T08:42:50.271Z,6.13
2019-01-10T08:45:21.735Z,5.50
2019-01-10T08:47:50.656Z,6.07
2019-01-10T08:50:21.505Z,6.40
2019-01-10T08:52:49.970Z,6.03
2019-01-10T08:55:18.489Z,6.70
2019-01-10T08:57:46.911Z,5.90
2019-01-10T09:00:21.140Z,6.57
2019-01-10T09:02:52.838Z,7.50
2019-01-10T09:05:21.675Z,7.60
2019-01-10T09:07:50.315Z,6.73
2019-01-10T09:10:21.499Z,7.13
2019-01-10T09:12:50.346Z,7.70
2019-01-10T09:15:25.304Z,7.47
2019-01-10T09:17:51.736Z,7.30
2019-01-10T09:20:22.909Z,7.07
2019-01-10T09:22:51.678Z,6.37
2019-01-10T09:25:20.592Z,6.97
2019-01-10T09:27:49.265Z,7.60
2019-01-10T09:30:19.410Z,7.23
2019-01-10T09:32:48.281Z,6.83
2019-01-10T09:35:17.667Z,6.40
2019-01-10T09:37:46.296Z,6.83
2019-01-10T09:40:17.450Z,6.20
2019-01-10T09:42:45.939Z,6.40
2019-01-10T09:45:17.508Z,6.57
2019-01-10T09:47:47.720Z,7.33
2019-01-10T09:50:20.929Z,6.60
2019-01-10T09:52:49.808Z,6.97
2019-01-10T09:55:18.668Z,6.40
2019-01-10T09:57:48.884Z,7.00
2019-01-10T10:00:25.908Z,6.47
2019-01-10T10:02:56.342Z,6.43
2019-01-10T10:05:25.209Z,6.63
2019-01-10T10:07:53.695Z,7.73
2019-01-10T10:10:22.541Z,6.67
2019-01-10T10:12:51.362Z,7.43
2019-01-10T10:15:21.023Z,7.10
2019-01-10T10:17:49.895Z,6.97
2019-01-10T10:20:22.037Z,7.23
2019-01-10T10:22:51.778Z,8.23
2019-01-10T10:25:23.145Z,8.03
2019-01-10T10:27:53.371Z,7.37
2019-01-10T10:30:22.492Z,8.03
2019-01-10T10:32:51.607Z,7.83
2019-01-10T10:35:21.343Z,10.07
2019-01-10T10:37:52.930Z,8.03
2019-01-10T10:40:21.677Z,8.57
2019-01-10T10:42:54.294Z,8.17
2019-01-10T10:45:24.886Z,8.57
2019-01-10T10:47:54.092Z,9.63
2019-01-10T10:50:25.552Z,7.80
2019-01-10T10:52:54.046Z,8.70
2019-01-10T10:55:25.295Z,7.13
2019-01-10T10:57:54.187Z,7.10
2019-01-10T11:00:25.312Z,6.80
2019-01-10T11:02:53.703Z,7.33
2019-01-10T11:05:22.449Z,7.47
2019-01-10T11:07:50.907Z,7.10
2019-01-10T11:10:21.236Z,7.53
2019-01-10T11:12:50.086Z,6.17
2019-01-10T11:15:19.518Z,6.00
2019-01-10T11:17:48.343Z,5.63
2019-01-10T11:20:21.871Z,5.13
2019-01-10T11:22:51.416Z,5.10
2019-01-10T11:25:23.288Z,5.30
2019-01-10T11:27:52.037Z,6.40
2019-01-10T11:30:22.148Z,5.20
2019-01-10T11:32:51.011Z,5.60
2019-01-10T11:35:20.286Z,4.80
2019-01-10T11:37:48.873Z,4.83
2019-01-10T11:40:19.275Z,5.07
2019-01-10T11:42:47.902Z,5.03
2019-01-10T11:45:18.534Z,4.40
2019-01-10T11:47:47.024Z,5.03
2019-01-10T11:50:16.614Z,4.30
2019-01-10T11:52:45.243Z,4.33
2019-01-10T11:55:13.938Z,4.70
2019-01-10T11:57:42.623Z,4.17
2019-01-10T12:00:19.772Z,4.40
2019-01-10T12:02:48.219Z,3.77
2019-01-10T12:05:16.652Z,3.60
2019-01-10T12:07:45.099Z,3.77
2019-01-10T12:10:13.591Z,4.50
2019-01-10T12:12:42.372Z,3.80
2019-01-10T12:15:12.171Z,4.13
2019-01-10T12:17:40.627Z,4.03
2019-01-10T12:20:12.016Z,4.00
2019-01-10T12:22:40.553Z,3.77
2019-01-10T12:25:11.451Z,3.80
2019-01-10T12:27:39.903Z,3.90
2019-01-10T12:30:14.598Z,4.10
2019-01-10T12:32:43.003Z,3.10
2019-01-10T12:35:11.426Z,3.53
2019-01-10T12:37:39.818Z,3.60
2019-01-10T12:40:12.692Z,2.87
2019-01-10T12:42:41.190Z,3.30
2019-01-10T12:45:17.754Z,3.53
2019-01-10T12:47:46.516Z,3.63
2019-01-10T12:50:20.310Z,3.30
2019-01-10T12:52:48.775Z,4.20
2019-01-10T12:55:17.210Z,3.80
2019-01-10T12:57:45.626Z,3.23
2019-01-10T13:00:17.125Z,3.50
2019-01-10T13:02:45.547Z,3.90
2019-01-10T13:05:14.930Z,3.77
2019-01-10T13:07:44.593Z,3.70
2019-01-10T13:10:17.490Z,3.63
2019-01-10T13:12:46.501Z,3.33
2019-01-10T13:15:17.772Z,3.23
2019-01-10T13:17:46.250Z,3.63
2019-01-10T13:20:14.776Z,3.30
2019-01-10T13:22:43.199Z,3.80
2019-01-10T13:25:14.185Z,3.20
2019-01-10T13:27:42.755Z,3.70
2019-01-10T13:30:14.314Z,3.60
2019-01-10T13:32:44.830Z,3.60
2019-01-10T13:35:14.292Z,3.20
2019-01-10T13:37:47.674Z,3.27
2019-01-10T13:40:18.255Z,3.30
2019-01-10T13:42:47.078Z,3.73
2019-01-10T13:45:17.923Z,3.40
2019-01-10T13:47:48.731Z,3.73
2019-01-10T13:50:23.110Z,3.47
2019-01-10T13:52:51.964Z,3.37
2019-01-10T13:55:22.592Z,3.70
2019-01-10T13:57:51.695Z,3.70
2019-01-10T14:00:25.463Z,3.80
2019-01-10T14:02:54.454Z,5.17
2019-01-10T14:05:24.869Z,3.53
2019-01-10T14:08:00.454Z,3.60
2019-01-10T14:10:30.681Z,3.50
2019-01-10T14:12:59.702Z,3.60
2019-01-10T14:15:30.006Z,3.90
2019-01-10T14:17:59.041Z,3.63
2019-01-10T14:20:27.720Z,3.90
2019-01-10T14:22:56.752Z,4.30
2019-01-10T14:25:27.361Z,4.43
2019-01-10T14:27:59.628Z,6.50
2019-01-10T14:30:34.483Z,4.77
2019-01-10T14:33:03.974Z,4.90
2019-01-10T14:35:34.711Z,4.40
2019-01-10T14:38:03.548Z,4.10
2019-01-10T14:40:32.471Z,4.57
2019-01-10T14:43:02.727Z,4.30
2019-01-10T14:45:33.495Z,4.20
2019-01-10T14:48:04.862Z,4.17
2019-01-10T14:50:33.392Z,3.87
2019-01-10T14:53:02.281Z,5.03
2019-01-10T14:55:31.039Z,4.50
2019-01-10T14:58:00.185Z,4.80
2019-01-10T15:00:29.121Z,4.50
2019-01-10T15:02:59.299Z,4.60
2019-01-10T15:05:34.303Z,4.50
2019-01-10T15:08:00.314Z,4.63
2019-01-10T15:10:29.052Z,4.53
2019-01-10T15:12:58.994Z,5.07
2019-01-10T15:15:29.114Z,4.97
2019-01-10T15:17:58.054Z,4.67
2019-01-10T15:20:30.180Z,4.77
2019-01-10T15:22:59.125Z,4.80
2019-01-10T15:25:27.947Z,4.57
2019-01-10T15:27:56.680Z,5.33
2019-01-10T15:30:26.951Z,4.93
2019-01-10T15:32:55.497Z,5.90
2019-01-10T15:35:24.586Z,7.47
2019-01-10T15:37:53.375Z,7.70
2019-01-10T15:40:24.649Z,7.67
2019-01-10T15:42:53.175Z,6.67
2019-01-10T15:45:22.142Z,6.53
2019-01-10T15:47:50.842Z,6.73
2019-01-10T15:50:21.567Z,6.50
2019-01-10T15:52:50.782Z,6.97
2019-01-10T15:55:21.277Z,8.50
2019-01-10T15:57:50.513Z,8.00
2019-01-10T16:00:24.621Z,9.70
2019-01-10T16:02:54.973Z,9.17
2019-01-10T16:05:23.994Z,8.53
2019-01-10T16:07:52.912Z,8.60
2019-01-10T16:10:21.597Z,8.67
2019-01-10T16:12:50.562Z,8.07
2019-01-10T16:15:21.526Z,8.47
2019-01-10T16:17:50.262Z,7.57
2019-01-10T16:20:18.875Z,14.53
2019-01-10T16:22:47.800Z,9.93
2019-01-10T16:25:19.573Z,13.43
2019-01-10T16:27:48.226Z,14.17
2019-01-10T16:30:25.034Z,9.67
2019-01-10T16:32:53.556Z,8.57
2019-01-10T16:35:21.972Z,8.00
2019-01-10T16:37:50.919Z,7.17
2019-01-10T16:40:19.758Z,8.97
2019-01-10T16:42:48.181Z,9.27
2019-01-10T16:45:28.916Z,11.30
2019-01-10T16:47:57.346Z,15.17
2019-01-10T16:50:26.241Z,12.80
2019-01-10T16:52:55.092Z,13.33
2019-01-10T16:55:23.839Z,12.63
2019-01-10T16:57:52.728Z,12.37
2019-01-10T17:00:29.603Z,13.47
2019-01-10T17:02:58.440Z,16.17
2019-01-10T17:05:26.977Z,16.90
2019-01-10T17:07:55.444Z,17.20
2019-01-10T17:10:23.906Z,15.97
2019-01-10T17:12:52.345Z,18.37
2019-01-10T17:15:21.555Z,18.57
2019-01-10T17:17:50.022Z,18.17
2019-01-10T17:20:24.102Z,17.60
2019-01-10T17:22:52.468Z,15.17
2019-01-10T17:25:21.141Z,14.33
2019-01-10T17:27:49.834Z,15.00
2019-01-10T17:30:26.509Z,13.10
2019-01-10T17:32:55.588Z,14.23
2019-01-10T17:35:26.437Z,12.47
2019-01-10T17:37:55.840Z,12.83
2019-01-10T17:40:24.641Z,11.57
2019-01-10T17:42:53.313Z,13.87
2019-01-10T17:45:25.533Z,12.20
2019-01-10T17:47:54.070Z,15.97
2019-01-10T17:50:22.806Z,15.57
2019-01-10T17:52:51.896Z,13.57
2019-01-10T17:55:20.385Z,12.43
2019-01-10T17:57:48.817Z,34.83
2019-01-10T18:00:20.528Z,12.17
2019-01-10T18:02:51.002Z,11.77
2019-01-10T18:05:19.337Z,9.90
2019-01-10T18:07:47.823Z,11.40
2019-01-10T18:10:19.579Z,11.30
2019-01-10T18:12:48.554Z,10.30
2019-01-10T18:15:20.072Z,11.07
2019-01-10T18:17:50.664Z,10.07
2019-01-10T18:20:32.780Z,10.07
2019-01-10T18:23:01.276Z,10.50
2019-01-10T18:25:29.692Z,10.43
2019-01-10T18:27:58.149Z,11.23
2019-01-10T18:30:26.594Z,11.07
2019-01-10T18:32:58.794Z,10.27
2019-01-10T18:35:27.752Z,11.43
2019-01-10T18:37:58.345Z,11.00
2019-01-10T18:40:26.788Z,10.77
2019-01-10T18:42:56.025Z,10.00
2019-01-10T18:45:27.564Z,10.60
2019-01-10T18:47:57.188Z,10.57
2019-01-10T18:50:26.093Z,11.23
2019-01-10T18:52:55.014Z,12.43
2019-01-10T18:55:23.959Z,14.93
2019-01-10T18:57:52.432Z,14.20
2019-01-10T19:00:25.533Z,15.10
2019-01-10T19:02:54.059Z,15.30
2019-01-10T19:05:22.487Z,16.07
2019-01-10T19:07:51.107Z,13.97
2019-01-10T19:10:21.849Z,14.00
2019-01-10T19:12:50.844Z,13.63
2019-01-10T19:15:20.030Z,14.40
2019-01-10T19:17:48.572Z,15.40
2019-01-10T19:20:22.668Z,15.10
2019-01-10T19:22:51.199Z,14.77
2019-01-10T19:25:20.131Z,15.07
2019-01-10T19:27:48.598Z,15.13
2019-01-10T19:30:25.413Z,39.77
2019-01-10T19:32:54.655Z,79.73
2019-01-10T19:35:23.010Z,83.93
2019-01-10T19:37:51.439Z,43.80
2019-01-10T19:40:22.440Z,38.63
2019-01-10T19:42:50.949Z,36.73
2019-01-10T19:45:21.083Z,44.37
2019-01-10T19:47:51.615Z,47.80
2019-01-10T19:50:25.090Z,45.87
2019-01-10T19:52:53.597Z,45.50
2019-01-10T19:55:23.117Z,37.73
2019-01-10T19:57:52.923Z,32.83
2019-01-10T20:00:27.302Z,24.37
2019-01-10T20:02:55.864Z,17.53
2019-01-10T20:05:24.370Z,29.67
2019-01-10T20:07:52.874Z,25.20
2019-01-10T20:10:21.500Z,22.47
2019-01-10T20:12:50.318Z,24.90
2019-01-10T20:15:18.889Z,24.50
2019-01-10T20:17:47.395Z,24.90
2019-01-10T20:20:25.149Z,23.27
2019-01-10T20:22:53.742Z,22.70
2019-01-10T20:25:22.211Z,21.37
2019-01-10T20:27:51.586Z,20.63
2019-01-10T20:30:20.048Z,20.40
2019-01-10T20:32:48.477Z,19.77
2019-01-10T20:35:18.322Z,20.13
2019-01-10T20:37:46.820Z,20.67
2019-01-10T20:40:17.266Z,19.70
2019-01-10T20:42:45.690Z,22.57
2019-01-10T20:45:14.618Z,19.17
2019-01-10T20:47:43.314Z,19.23
2019-01-10T20:50:16.184Z,19.57
2019-01-10T20:52:44.609Z,19.10
2019-01-10T20:55:17.318Z,19.50
2019-01-10T20:57:47.551Z,16.93
2019-01-10T21:00:21.899Z,17.97
2019-01-10T21:02:50.908Z,17.43
2019-01-10T21:05:19.381Z,16.37
2019-01-10T21:07:49.454Z,16.93
2019-01-10T21:10:19.909Z,16.70
2019-01-10T21:12:48.465Z,16.37
2019-01-10T21:15:35.558Z,17.77
2019-01-10T21:18:04.064Z,17.47
2019-01-10T21:20:32.459Z,17.57
2019-01-10T21:23:01.079Z,15.93
2019-01-10T21:25:31.161Z,14.40
2019-01-10T21:28:00.773Z,13.60
2019-01-10T21:30:29.226Z,15.33
2019-01-10T21:32:57.608Z,14.97
2019-01-10T21:35:26.073Z,13.97
2019-01-10T21:37:54.429Z,15.60
2019-01-10T21:40:25.658Z,15.17
2019-01-10T21:42:54.323Z,14.43
2019-01-10T21:45:23.804Z,17.03
2019-01-10T21:47:52.451Z,18.73
2019-01-10T21:50:25.839Z,16.67
2019-01-10T21:52:54.688Z,14.23
2019-01-10T21:55:23.970Z,12.43
2019-01-10T21:57:53.582Z,15.07
2019-01-10T22:00:31.649Z,14.50
2019-01-10T22:03:00.784Z,14.07
2019-01-10T22:05:29.249Z,19.27
2019-01-10T22:07:57.714Z,17.53
2019-01-10T22:10:26.087Z,18.63
2019-01-10T22:12:54.708Z,14.53
2019-01-10T22:15:25.232Z,15.47
2019-01-10T22:17:54.238Z,15.57
2019-01-10T22:20:23.317Z,15.20
2019-01-10T22:22:52.832Z,14.63
2019-01-10T22:25:21.576Z,14.90
2019-01-10T22:27:50.807Z,14.93
2019-01-10T22:30:21.881Z,15.27
2019-01-10T22:32:51.732Z,14.63
2019-01-10T22:35:25.485Z,16.23
2019-01-10T22:37:55.654Z,17.30
2019-01-10T22:40:24.702Z,16.77
2019-01-10T22:42:54.551Z,16.97
2019-01-10T22:45:23.932Z,15.53
2019-01-10T22:47:52.920Z,14.13
2019-01-10T22:50:21.670Z,14.00
2019-01-10T22:52:51.162Z,14.80
2019-01-10T22:55:20.130Z,14.93
2019-01-10T22:57:51.902Z,15.20
2019-01-10T23:00:32.232Z,14.03
2019-01-10T23:03:08.066Z,14.27
2019-01-10T23:05:41.869Z,14.67
2019-01-10T23:08:10.685Z,14.50
2019-01-10T23:10:40.060Z,15.83
2019-01-10T23:13:08.686Z,15.60
2019-01-10T23:15:37.578Z,14.47
2019-01-10T23:18:06.983Z,14.70
2019-01-10T23:20:40.257Z,15.47
2019-01-10T23:23:17.363Z,16.13
2019-01-10T23:25:50.480Z,15.13
2019-01-10T23:28:19.432Z,13.73
2019-01-10T23:30:59.173Z,17.00
2019-01-10T23:33:28.681Z,14.90
2019-01-10T23:36:01.991Z,16.13
2019-01-10T23:38:31.118Z,16.73
2019-01-10T23:41:00.343Z,15.90
2019-01-10T23:43:29.346Z,16.67
2019-01-10T23:45:58.301Z,16.83
2019-01-10T23:48:27.523Z,15.83
2019-01-10T23:50:56.390Z,17.10
2019-01-10T23:53:25.387Z,15.73
2019-01-10T23:55:56.315Z,17.83
2019-01-10T23:58:26.507Z,16.30
